Time;durP1;ratioP1;P1;durP2;ratioP2;P2;SDS_P1;SDS_P2;PMS_P1;PMS_P2;Temp;Humidity;BMP_temperature;BMP_pressure;BME280_temperature;BME280_humidity;BME280_pressure;Samples;Min_cycle;Max_cycle;Signal;HPM_P1;HPM_P2
2022/06/21 00:01:49;;;;;;;0.57;0.35;;;;;;;;;;4981893;28;20085;-78
2022/06/21 00:04:15;;;;;;;1.02;0.55;;;;;;;;;;4992784;28;20114;-77
2022/06/21 00:06:41;;;;;;;6.10;0.47;;;;;;;;;;4997313;28;20096;-77
2022/06/21 00:09:07;;;;;;;0.63;0.30;;;;;;;;;;4988861;28;20026;-77
2022/06/21 00:11:34;;;;;;;0.90;0.32;;;;;;;;;;4982749;28;20494;-77
2022/06/21 00:14:00;;;;;;;0.93;0.47;;;;;;;;;;4987812;28;20030;-77
2022/06/21 00:16:27;;;;;;;7.13;0.65;;;;;;;;;;4984307;28;20051;-77
2022/06/21 00:18:54;;;;;;;1.10;0.70;;;;;;;;;;4988640;28;20030;-76
2022/06/21 00:21:23;;;;;;;0.70;0.20;;;10.70;99.90;;;;;;4984998;28;20034;-76
2022/06/21 00:23:51;;;;;;;1.38;0.40;;;;;;;;;;4988192;28;20069;-78
2022/06/21 00:26:19;;;;;;;3.85;0.52;;;9.70;99.90;;;;;;4993519;28;20053;-76
2022/06/21 00:28:45;;;;;;;3.22;0.55;;;;;;;;;;4992319;28;20033;-77
2022/06/21 00:31:24;;;;;;;0.65;0.40;;;10.50;99.90;;;;;;4995236;28;20094;-77
2022/06/21 00:33:50;;;;;;;1.90;0.60;;;;;;;;;;4992824;28;20097;-77
2022/06/21 00:36:34;;;;;;;2.15;0.60;;;;;;;;;;4987915;28;20030;-77
2022/06/21 00:39:01;;;;;;;0.82;0.55;;;;;;;;;;4986497;28;20475;-78
2022/06/21 00:41:32;;;;;;;1.30;0.50;;;;;;;;;;4991668;28;20050;-77
2022/06/21 00:44:01;;;;;;;0.60;0.40;;;;;;;;;;4983500;28;20147;-78
2022/06/21 00:46:35;;;;;;;0.73;0.28;;;;;;;;;;4991108;28;20398;-77
2022/06/21 00:49:02;;;;;;;1.45;0.52;;;9.70;99.90;;;;;;4993659;28;20030;-77
2022/06/21 00:51:33;;;;;;;0.63;0.30;;;;;;;;;;4998617;28;20045;-77
2022/06/21 00:54:03;;;;;;;0.50;0.30;;;;;;;;;;4991047;28;20042;-77
2022/06/21 00:56:32;;;;;;;2.20;0.55;;;;;;;;;;4999972;28;20069;-77
2022/06/21 00:58:58;;;;;;;1.33;0.88;;;;;;;;;;4984129;28;20027;-77
2022/06/21 01:01:26;;;;;;;1.30;0.50;;;9.50;99.90;;;;;;4991124;28;20035;-78
2022/06/21 01:03:55;;;;;;;0.43;0.35;;;;;;;;;;4993867;28;20057;-77
2022/06/21 01:06:24;;;;;;;1.00;0.40;;;;;;;;;;4995434;28;20411;-78
2022/06/21 01:08:53;;;;;;;1.10;0.60;;;;;;;;;;4992353;28;20035;-77
2022/06/21 01:11:21;;;;;;;1.65;0.65;;;;;;;;;;4991796;28;20038;-78
2022/06/21 01:13:49;;;;;;;2.10;0.85;;;;;;;;;;4991536;28;20022;-77
2022/06/21 01:16:15;;;;;;;1.33;0.50;;;;;;;;;;4998116;28;20034;-77
2022/06/21 01:18:43;;;;;;;1.40;0.40;;;9.30;99.90;;;;;;4986871;28;20422;-78
2022/06/21 01:21:10;;;;;;;0.70;0.52;;;;;;;;;;4998480;28;20054;-78
2022/06/21 01:23:46;;;;;;;0.98;0.50;;;;;;;;;;4993319;28;20034;-78
2022/06/21 01:26:12;;;;;;;0.43;0.20;;;;;;;;;;4995032;28;20034;-77
2022/06/21 01:28:39;;;;;;;1.42;1.33;;;;;;;;;;4992475;28;20085;-79
2022/06/21 01:31:05;;;;;;;0.47;0.30;;;;;;;;;;5001171;28;20026;-78
2022/06/21 01:33:32;;;;;;;0.70;0.70;;;;;;;;;;4999839;28;20144;-78
2022/06/21 01:36:01;;;;;;;0.70;0.50;;;;;;;;;;4993885;28;20054;-77
2022/06/21 01:38:29;;;;;;;0.52;0.40;;;;;;;;;;4998182;28;20390;-78
2022/06/21 01:40:59;;;;;;;1.05;0.45;;;;;;;;;;4993993;28;20031;-78
2022/06/21 01:43:28;;;;;;;1.65;0.30;;;10.20;99.90;;;;;;5002955;28;20049;-79
2022/06/21 01:46:00;;;;;;;0.88;0.40;;;9.10;99.90;;;;;;4998825;28;20097;-78
2022/06/21 01:48:31;;;;;;;1.20;0.43;;;;;;;;;;4996902;28;20033;-78
2022/06/21 01:51:07;;;;;;;0.28;0.22;;;9.10;99.90;;;;;;5000050;28;20045;-78
2022/06/21 01:53:33;;;;;;;0.65;0.45;;;;;;;;;;4991710;28;20035;-76
2022/06/21 01:56:02;;;;;;;1.23;0.75;;;;;;;;;;4992077;28;20034;-77
2022/06/21 01:58:30;;;;;;;1.35;0.40;;;9.10;99.90;;;;;;4996107;28;20109;-80
2022/06/21 02:01:01;;;;;;;0.73;0.50;;;;;;;;;;5001294;28;20038;-77
2022/06/21 02:03:30;;;;;;;1.02;0.60;;;;;;;;;;4997170;28;20045;-79
2022/06/21 02:05:57;;;;;;;0.98;0.57;;;;;;;;;;5001696;28;20082;-77
2022/06/21 02:08:26;;;;;;;0.65;0.47;;;;;;;;;;4995595;28;20030;-78
2022/06/21 02:10:56;;;;;;;0.95;0.52;;;;;;;;;;5000802;28;20027;-79
2022/06/21 02:13:26;;;;;;;1.10;0.40;;;;;;;;;;4997810;28;20051;-78
2022/06/21 02:16:10;;;;;;;0.80;0.73;;;;;;;;;;4993968;28;20027;-78
2022/06/21 02:18:40;;;;;;;1.30;0.68;;;;;;;;;;4997166;28;20030;-78
2022/06/21 02:21:11;;;;;;;3.00;0.77;;;;;;;;;;4997915;28;20036;-78
2022/06/21 02:23:40;;;;;;;1.55;0.57;;;9.00;99.90;;;;;;4993994;28;20042;-77
2022/06/21 02:26:05;;;;;;;1.65;0.40;;;;;;;;;;4997219;28;20046;-78
2022/06/21 02:28:32;;;;;;;0.88;0.50;;;;;;;;;;4999125;28;20035;-78
2022/06/21 02:30:59;;;;;;;0.80;0.40;;;9.70;99.90;;;;;;4992816;28;20026;-77
2022/06/21 02:33:28;;;;;;;0.38;0.32;;;;;;;;;;4991693;28;20034;-78
2022/06/21 02:35:59;;;;;;;1.05;0.52;;;;;;;;;;5008624;28;20038;-78
2022/06/21 02:38:31;;;;;;;0.90;0.43;;;;;;;;;;4995897;28;20034;-77
2022/06/21 02:40:59;;;;;;;0.88;0.63;;;;;;;;;;4995694;28;20426;-77
2022/06/21 02:43:33;;;;;;;0.40;0.30;;;;;;;;;;4996184;28;20030;-79
2022/06/21 02:46:16;;;;;;;1.35;0.60;;;9.80;99.90;;;;;;4997031;28;20030;-78
2022/06/21 02:48:44;;;;;;;0.32;0.30;;;;;;;;;;4996960;28;20268;-77
2022/06/21 02:51:19;;;;;;;0.98;0.50;;;;;;;;;;4993719;28;20038;-78
2022/06/21 02:54:04;;;;;;;0.98;0.45;;;9.90;99.90;;;;;;4999052;28;20158;-78
2022/06/21 02:56:40;;;;;;;1.08;0.65;;;9.10;99.90;;;;;;4998133;28;20140;-79
2022/06/21 02:59:06;;;;;;;1.70;1.25;;;;;;;;;;4994756;28;20076;-76
2022/06/21 03:01:38;;;;;;;0.75;0.47;;;;;;;;;;4993372;28;20049;-77
2022/06/21 03:04:05;;;;;;;5.97;0.63;;;;;;;;;;5001543;28;20050;-78
2022/06/21 03:06:32;;;;;;;0.50;0.47;;;;;;;;;;4992517;28;20537;-79
2022/06/21 03:09:03;;;;;;;0.50;0.30;;;;;;;;;;4994630;28;20057;-77
2022/06/21 03:11:34;;;;;;;1.00;0.40;;;8.90;99.90;;;;;;4992326;28;20062;-78
2022/06/21 03:14:03;;;;;;;1.02;0.57;;;8.80;99.90;;;;;;4994782;28;20106;-78
2022/06/21 03:16:29;;;;;;;0.95;0.40;;;;;;;;;;4993225;28;20017;-78
2022/06/21 03:18:58;;;;;;;0.85;0.70;;;;;;;;;;4992322;28;20126;-77
2022/06/21 03:21:34;;;;;;;1.52;0.55;;;;;;;;;;4995120;28;20054;-77
2022/06/21 03:24:03;;;;;;;1.45;0.85;;;;;;;;;;4994931;28;20129;-79
2022/06/21 03:26:30;;;;;;;0.20;0.20;;;;;;;;;;4989295;28;20027;-78
2022/06/21 03:28:57;;;;;;;0.60;0.22;;;;;;;;;;4997202;28;20049;-78
2022/06/21 03:31:23;;;;;;;1.17;0.47;;;;;;;;;;4991749;28;20426;-78
2022/06/21 03:33:52;;;;;;;1.05;0.45;;;;;;;;;;4992605;28;20025;-77
2022/06/21 03:36:20;;;;;;;0.65;0.45;;;;;;;;;;4992692;28;20053;-77
2022/06/21 03:38:49;;;;;;;0.88;0.55;;;8.60;99.90;;;;;;4994123;28;20038;-78
2022/06/21 03:44:17;;;;;;;0.63;0.43;;;;;;;;;;4991676;28;21017;-78
2022/06/21 03:46:53;;;;;;;5.82;0.73;;;;;;;;;;4989182;28;20129;-78
2022/06/21 03:49:38;;;;;;;0.77;0.40;;;;;;;;;;4993417;28;20038;-77
2022/06/21 03:52:06;;;;;;;0.55;0.50;;;;;;;;;;5003014;28;20061;-77
2022/06/21 03:54:34;;;;;;;0.30;0.22;;;;;;;;;;4990472;28;20029;-76
2022/06/21 03:57:07;;;;;;;0.40;0.30;;;;;;;;;;4987949;28;20448;-76
2022/06/21 03:59:39;;;;;;;1.35;0.45;;;;;;;;;;4984990;28;20047;-77
2022/06/21 04:02:27;;;;;;;0.75;0.50;;;;;;;;;;4980859;28;20403;-76
2022/06/21 04:04:53;;;;;;;0.80;0.50;;;;;;;;;;4984597;28;20390;-76
2022/06/21 04:07:32;;;;;;;4.28;0.47;;;;;;;;;;4985920;28;20039;-77
2022/06/21 04:10:02;;;;;;;0.38;0.30;;;;;;;;;;4990632;28;20139;-78
2022/06/21 04:12:38;;;;;;;0.52;0.32;;;9.90;99.90;;;;;;5005696;28;20702;-77
2022/06/21 04:15:04;;;;;;;0.80;0.43;;;;;;;;;;4983581;28;20035;-77
2022/06/21 04:17:34;;;;;;;0.50;0.50;;;;;;;;;;4992888;28;20026;-77
2022/06/21 04:20:19;;;;;;;0.95;0.77;;;;;;;;;;4988615;28;20027;-79
2022/06/21 04:23:10;;;;;;;0.98;0.52;;;10.00;99.90;;;;;;4986124;28;20094;-79
2022/06/21 04:25:38;;;;;;;0.73;0.30;;;;;;;;;;4996030;28;20085;-77
2022/06/21 04:28:21;;;;;;;0.95;0.40;;;9.30;99.90;;;;;;4993560;28;20023;-78
2022/06/21 04:30:52;;;;;;;1.48;0.45;;;;;;;;;;4987206;28;20073;-78
2022/06/21 04:33:20;;;;;;;1.80;0.88;;;;;;;;;;4987941;28;20043;-78
2022/06/21 04:35:56;;;;;;;2.30;0.68;;;9.00;99.90;;;;;;4985070;28;20392;-79
2022/06/21 04:38:52;;;;;;;0.70;0.50;;;9.50;99.90;;;;;;4984812;28;20042;-79
2022/06/21 04:41:32;;;;;;;1.23;0.60;;;;;;;;;;4984024;28;20031;-77
2022/06/21 04:44:01;;;;;;;0.88;0.47;;;;;;;;;;4982729;28;20100;-77
2022/06/21 04:46:50;;;;;;;1.20;0.82;;;;;;;;;;4966152;28;21837;-77
2022/06/21 04:49:26;;;;;;;3.70;0.73;;;;;;;;;;4954883;28;20054;-76
2022/06/21 04:52:02;;;;;;;4.38;0.50;;;;;;;;;;4972118;28;20114;-78
2022/06/21 04:54:29;;;;;;;0.68;0.45;;;;;;;;;;4973716;28;20046;-76
2022/06/21 04:57:20;;;;;;;0.90;0.50;;;11.00;99.90;;;;;;4965792;28;20133;-75
2022/06/21 04:59:48;;;;;;;0.68;0.35;;;;;;;;;;4969109;28;20031;-77
2022/06/21 05:02:17;;;;;;;1.45;0.50;;;;;;;;;;4976804;28;20062;-75
2022/06/21 05:04:44;;;;;;;0.73;0.50;;;;;;;;;;4976133;28;20457;-76
2022/06/21 05:07:13;;;;;;;0.77;0.55;;;;;;;;;;4977271;28;20096;-77
2022/06/21 05:09:40;;;;;;;0.90;0.43;;;11.10;99.90;;;;;;4979867;28;20026;-77
2022/06/21 05:12:16;;;;;;;0.80;0.40;;;;;;;;;;4971667;28;20034;-77
2022/06/21 05:14:47;;;;;;;0.68;0.30;;;11.30;99.90;;;;;;4973918;28;20030;-78
2022/06/21 05:17:15;;;;;;;1.23;0.75;;;;;;;;;;4981740;28;20031;-77
2022/06/21 05:19:46;;;;;;;0.40;0.40;;;11.40;99.90;;;;;;4976136;28;20589;-77
2022/06/21 05:22:15;;;;;;;2.30;0.40;;;;;;;;;;4978774;28;20030;-78
2022/06/21 05:24:41;;;;;;;1.40;0.57;;;;;;;;;;4980867;28;20525;-77
2022/06/21 05:27:16;;;;;;;1.08;0.60;;;;;;;;;;4976010;28;20030;-77
2022/06/21 05:29:48;;;;;;;1.42;0.65;;;;;;;;;;4973764;28;20649;-77
2022/06/21 05:32:23;;;;;;;0.80;0.40;;;;;;;;;;4987515;28;20030;-77
2022/06/21 05:34:57;;;;;;;1.45;0.30;;;;;;;;;;4981116;28;20057;-78
2022/06/21 05:37:44;;;;;;;0.63;0.43;;;;;;;;;;4985613;28;20041;-78
2022/06/21 05:40:39;;;;;;;1.70;0.40;;;11.90;99.90;;;;;;4989775;28;20051;-77
2022/06/21 05:43:04;;;;;;;;;;;;;;;;;;4988717;28;20073;-78
2022/06/21 05:45:30;;;;;;;;;;;;;;;;;;4986319;28;20361;-78
2022/06/21 05:47:56;;;;;;;;;;;;;;;;;;4983351;28;19972;-78
2022/06/21 05:50:22;;;;;;;;;;;;;;;;;;4981683;28;19909;-79
2022/06/21 05:52:49;;;;;;;;;;;12.40;99.90;;;;;;4989941;28;20386;-79
2022/06/21 05:55:15;;;;;;;;;;;;;;;;;;4996269;28;19910;-78
2022/06/21 05:57:52;;;;;;;;;;;13.40;99.90;;;;;;4989586;28;19940;-77
2022/06/21 06:00:36;;;;;;;;;;;13.80;99.90;;;;;;4987624;28;19909;-77
2022/06/21 06:03:02;;;;;;;;;;;;;;;;;;4982699;28;20025;-78
2022/06/21 06:05:31;;;;;;;;;;;14.10;99.90;;;;;;4981860;28;20017;-78
2022/06/21 06:08:01;;;;;;;;;;;14.80;99.90;;;;;;4984371;28;20001;-78
2022/06/21 06:10:28;;;;;;;;;;;16.70;99.90;;;;;;4987098;28;20040;-78
2022/06/21 06:12:53;;;;;;;;;;;;;;;;;;4992692;28;19949;-79
2022/06/21 06:15:22;;;;;;;;;;;18.70;99.90;;;;;;4988612;28;19921;-78
2022/06/21 06:17:51;;;;;;;;;;;20.80;99.90;;;;;;4989019;28;20001;-78
2022/06/21 06:20:39;;;;;;;0.50;0.32;;;21.60;96.40;;;;;;4980486;28;19941;-77
2022/06/21 06:23:26;;;;;;;0.15;0.10;;;22.50;93.90;;;;;;4985093;28;20014;-78
2022/06/21 06:25:55;;;;;;;;;;;22.90;91.70;;;;;;4991553;28;20038;-77
2022/06/21 06:28:39;;;;;;;;;;;24.00;88.50;;;;;;4990254;28;19949;-77
2022/06/21 06:31:13;;;;;;;;;;;25.80;83.60;;;;;;4987950;28;19914;-77
2022/06/21 06:33:42;;;;;;;2.95;0.25;;;28.90;65.60;;;;;;4988287;28;19914;-78
2022/06/21 06:36:14;;;;;;;1.38;0.38;;;31.00;58.30;;;;;;4984201;28;20038;-76
2022/06/21 06:38:41;;;;;;;1.05;0.13;;;33.20;55.20;;;;;;4975587;28;20031;-78
2022/06/21 06:41:50;;;;;;;2.50;0.43;;;34.00;55.40;;;;;;4997766;28;20031;-78
2022/06/21 06:44:16;;;;;;;4.78;0.40;;;34.90;37.90;;;;;;4993613;28;20042;-76
2022/06/21 06:46:43;;;;;;;;;;;35.20;38.50;;;;;;4990755;28;20109;-79
2022/06/21 06:49:15;;;;;;;;;;;35.90;35.90;;;;;;4994472;28;20689;-78
2022/06/21 06:51:40;;;;;;;;;;;36.00;33.40;;;;;;4983275;28;19918;-78
2022/06/21 06:54:10;;;;;;;;;;;33.80;34.70;;;;;;4995299;28;19910;-78
2022/06/21 06:56:43;;;;;;;;;;;35.90;37.00;;;;;;4999403;28;19914;-77
2022/06/21 06:59:12;;;;;;;;;;;37.90;34.90;;;;;;4998244;28;20009;-78
2022/06/21 07:01:37;;;;;;;;;;;37.40;35.30;;;;;;4985626;28;19914;-79
2022/06/21 07:04:03;;;;;;;;;;;39.00;32.90;;;;;;4986394;28;20432;-79
2022/06/21 07:06:38;;;;;;;;;;;38.90;31.50;;;;;;4983549;28;19913;-78
2022/06/21 07:09:16;;;;;;;1.25;0.40;;;39.40;32.20;;;;;;4988314;28;19914;-80
2022/06/21 07:11:42;;;;;;;1.75;0.22;;;;;;;;;;4984420;28;20037;-79
2022/06/21 07:14:20;;;;;;;2.20;0.60;;;40.10;42.40;;;;;;4993054;28;20713;-78
2022/06/21 07:16:47;;;;;;;1.10;0.35;;;;;;;;;;4986335;28;20418;-79
2022/06/21 07:19:13;;;;;;;2.47;0.38;;;;;;;;;;4994704;28;20441;-78
2022/06/21 07:21:39;;;;;;;2.35;0.35;;;;;;;;;;4992280;28;20410;-78
2022/06/21 07:24:16;;;;;;;1.40;0.32;;;;;;;;;;4981840;28;20518;-80
2022/06/21 07:26:42;;;;;;;1.27;0.45;;;;;;;;;;4984395;28;20690;-79
2022/06/21 07:29:43;;;;;;;1.38;0.40;;;;;;;;;;4987472;28;20422;-80
2022/06/21 07:32:12;;;;;;;2.40;0.47;;;36.40;32.40;;;;;;4988364;28;20458;-79
2022/06/21 07:34:43;;;;;;;;;;;34.90;31.40;;;;;;4996419;28;20193;-79
2022/06/21 07:37:18;;;;;;;;;;;34.10;34.40;;;;;;4987101;28;19925;-78
2022/06/21 07:39:56;;;;;;;;;;;33.70;34.00;;;;;;4994233;28;19936;-79
2022/06/21 07:42:22;;;;;;;;;;;;;;;;;;4995823;28;20394;-78
2022/06/21 07:44:49;;;;;;;;;;;33.50;35.40;;;;;;4996498;28;19988;-76
2022/06/21 07:47:20;;;;;;;;;;;33.50;34.30;;;;;;4995081;28;19914;-77
2022/06/21 07:49:59;;;;;;;;;;;33.30;35.40;;;;;;4995696;28;19961;-77
2022/06/21 07:52:55;;;;;;;;;;;33.60;34.50;;;;;;4988713;28;19928;-79
2022/06/21 07:55:32;;;;;;;;;;;33.80;34.40;;;;;;4998098;28;19921;-78
2022/06/21 07:58:01;;;;;;;;;;;34.50;34.90;;;;;;4986695;28;20251;-79
2022/06/21 08:06:40;;;;;;;;;;;35.80;33.20;;;;;;4992607;28;19932;-78
2022/06/21 08:08:47;;;;;;;;;;;34.70;32.90;;;;;;4999499;28;20358;-78
2022/06/21 08:11:16;;;;;;;;;;;34.30;33.60;;;;;;4997384;28;19928;-79
2022/06/21 08:13:41;;;;;;;;;;;33.50;33.50;;;;;;4996598;28;19918;-79
2022/06/21 08:16:13;;;;;;;;;;;32.30;36.80;;;;;;4984370;28;19947;-78
2022/06/21 08:18:42;;;;;;;;;;;31.40;37.90;;;;;;4992638;28;19921;-78
2022/06/21 08:21:11;;;;;;;;;;;30.80;39.00;;;;;;4992025;28;19914;-78
2022/06/21 08:24:09;;;;;;;;;;;31.40;41.10;;;;;;4987931;28;20420;-79
2022/06/21 08:26:53;;;;;;;;;;;31.30;39.20;;;;;;4999271;28;19909;-79
2022/06/21 08:29:28;;;;;;;;;;;29.50;39.10;;;;;;4991388;28;19909;-80
2022/06/21 08:32:07;;;;;;;;;;;30.40;42.40;;;;;;4987255;28;19920;-79
2022/06/21 08:34:35;;;;;;;;;;;30.30;41.10;;;;;;4997835;28;19909;-80
2022/06/21 08:37:01;;;;;;;;;;;;;;;;;;4992505;28;19914;-78
2022/06/21 08:39:45;;;;;;;;;;;28.40;43.50;;;;;;4992751;28;19914;-80
2022/06/21 08:42:10;;;;;;;;;;;26.70;46.30;;;;;;4985393;28;19977;-78
2022/06/21 08:45:40;;;;;;;;;;;26.20;46.50;;;;;;4990005;28;19957;-79
2022/06/21 08:47:40;;;;;;;;;;;;;;;;;;4991613;28;19921;-79
2022/06/21 08:50:08;;;;;;;;;;;25.40;49.20;;;;;;4986494;28;20263;-79
2022/06/21 08:52:34;;;;;;;;;;;;;;;;;;4999475;28;20037;-78
2022/06/21 08:55:00;;;;;;;;;;;25.80;49.50;;;;;;4991431;28;19941;-79
2022/06/21 08:57:25;;;;;;;;;;;;;;;;;;4992116;28;19906;-78
2022/06/21 08:59:54;;;;;;;;;;;26.50;48.10;;;;;;4993747;28;19920;-78
2022/06/21 09:02:38;;;;;;;;;;;27.00;45.10;;;;;;4991788;28;19970;-79
2022/06/21 09:05:09;;;;;;;;;;;26.50;44.40;;;;;;4988898;28;20029;-80
2022/06/21 09:07:41;;;;;;;;;;;26.50;46.90;;;;;;4989548;28;19912;-79
2022/06/21 09:10:18;;;;;;;;;;;26.60;47.40;;;;;;4998040;28;19913;-80
2022/06/21 09:12:44;;;;;;;;;;;;;;;;;;4997806;28;20036;-80
2022/06/21 09:15:17;;;;;;;;;;;26.80;47.50;;;;;;4990186;28;19941;-79
2022/06/21 09:17:43;;;;;;;;;;;;;;;;;;5003068;28;19920;-78
2022/06/21 09:20:21;;;;;;;;;;;27.40;44.30;;;;;;4995926;28;19906;-79
2022/06/21 09:22:53;;;;;;;;;;;29.50;43.20;;;;;;4990333;28;19914;-79
2022/06/21 09:25:26;;;;;;;;;;;30.60;42.00;;;;;;4993360;28;20076;-79
2022/06/21 09:27:54;;;;;;;;;;;30.70;39.70;;;;;;4991652;28;19914;-79
2022/06/21 09:30:22;;;;;;;;;;;29.60;39.40;;;;;;4997572;28;19914;-79
2022/06/21 09:32:47;;;;;;;;;;;29.70;40.70;;;;;;4991346;28;19914;-80
2022/06/21 09:35:45;;;;;;;;;;;28.40;40.60;;;;;;4982543;28;19916;-78
2022/06/21 09:38:11;;;;;;;;;;;;;;;;;;4978912;28;19914;-78
2022/06/21 09:40:46;;;;;;;;;;;26.50;44.30;;;;;;4991569;28;19921;-79
2022/06/21 09:43:15;;;;;;;;;;;26.20;45.30;;;;;;4987462;28;19917;-80
2022/06/21 09:45:41;;;;;;;;;;;;;;;;;;4985203;28;19921;-78
2022/06/21 09:48:12;;;;;;;;;;;25.90;48.70;;;;;;4995424;28;20457;-79
2022/06/21 09:50:57;;;;;;;;;;;25.60;47.70;;;;;;4984217;28;19914;-80
2022/06/21 09:53:32;;;;;;;;;;;25.50;50.30;;;;;;4992487;28;19914;-80
2022/06/21 09:55:57;;;;;;;;;;;24.70;48.80;;;;;;4994601;28;19914;-80
2022/06/21 09:58:23;;;;;;;;;;;;;;;;;;4992334;28;19913;-79
2022/06/21 10:00:51;;;;;;;;;;;25.50;49.20;;;;;;4987279;28;19913;-78
2022/06/21 10:03:17;;;;;;;;;;;;;;;;;;4993714;28;19910;-78
2022/06/21 10:05:52;;;;;;;;;;;25.70;52.60;;;;;;5000961;28;19941;-79
2022/06/21 10:08:27;;;;;;;;;;;25.70;48.10;;;;;;5004169;28;19944;-79
2022/06/21 10:11:07;;;;;;;;;;;25.70;46.60;;;;;;5000966;28;20145;-79
2022/06/21 10:13:35;;;;;;;;;;;25.60;44.80;;;;;;4991259;28;19918;-78
2022/06/21 10:16:01;;;;;;;;;;;;;;;;;;4989278;28;19918;-79
2022/06/21 10:18:34;;;;;;;;;;;25.60;46.80;;;;;;4996435;28;20029;-78
2022/06/21 10:21:00;;;;;;;;;;;;;;;;;;4993091;28;19916;-79
2022/06/21 10:23:26;;;;;;;;;;;;;;;;;;5004926;28;19918;-79
2022/06/21 10:25:51;;;;;;;;;;;25.80;45.70;;;;;;4994441;28;20451;-79
2022/06/21 10:28:17;;;;;;;;;;;;;;;;;;5004237;28;19914;-80
2022/06/21 10:30:43;;;;;;;;;;;;;;;;;;4996330;28;19909;-78
2022/06/21 10:33:27;;;;;;;;;;;25.90;44.60;;;;;;4995836;28;19982;-78
2022/06/21 10:35:53;;;;;;;;;;;25.60;45.90;;;;;;4992604;28;19936;-78
2022/06/21 10:38:25;;;;;;;;;;;25.70;48.50;;;;;;4997032;28;19968;-80
2022/06/21 10:41:09;;;;;;;;;;;25.70;49.00;;;;;;4995918;28;19909;-79
2022/06/21 10:43:40;;;;;;;;;;;25.60;46.80;;;;;;4991455;28;19918;-78
2022/06/21 10:46:10;;;;;;;;;;;25.90;48.60;;;;;;4994161;28;21325;-78
2022/06/21 10:48:36;;;;;;;;;;;;;;;;;;5000684;28;20004;-78
2022/06/21 10:51:04;;;;;;;;;;;26.30;49.30;;;;;;4992322;28;19941;-78
2022/06/21 10:53:42;;;;;;;;;;;26.50;46.00;;;;;;4993400;28;20393;-77
2022/06/21 10:59:16;;;;;;;;;;;26.40;48.30;;;;;;4983752;28;19924;-78
2022/06/21 11:01:48;;;;;;;;;;;26.40;47.90;;;;;;4989312;28;19916;-78
2022/06/21 11:04:19;;;;;;;;;;;26.50;49.80;;;;;;4985361;28;19925;-78
2022/06/21 11:06:49;;;;;;;;;;;26.60;48.50;;;;;;4992004;28;19949;-78
2022/06/21 11:09:27;;;;;;;;;;;26.50;48.00;;;;;;4986808;28;19950;-78
2022/06/21 11:11:55;;;;;;;;;;;26.50;47.50;;;;;;4996669;28;20000;-77
2022/06/21 11:14:28;;;;;;;;;;;26.90;48.00;;;;;;4993523;28;19992;-77
2022/06/21 11:17:07;;;;;;;;;;;26.50;46.20;;;;;;4995018;28;19943;-77
2022/06/21 11:19:36;;;;;;;;;;;26.60;46.40;;;;;;4988329;28;19918;-78
2022/06/21 11:22:11;;;;;;;;;;;26.90;47.20;;;;;;4986316;28;20008;-78
2022/06/21 11:24:45;;;;;;;;;;;26.90;45.90;;;;;;4993385;28;19925;-78
2022/06/21 11:27:33;;;;;;;;;;;26.90;42.50;;;;;;4986288;28;19916;-79
2022/06/21 11:29:58;;;;;;;;;;;27.20;45.70;;;;;;4989091;28;19921;-78
2022/06/21 11:32:34;;;;;;;;;;;28.40;44.30;;;;;;4989233;28;20004;-78
2022/06/21 11:34:59;;;;;;;;;;;27.50;43.40;;;;;;4988594;28;19920;-78
2022/06/21 11:37:57;;;;;;;;;;;27.40;44.20;;;;;;4979514;28;19918;-81
2022/06/21 11:40:29;;;;;;;;;;;27.20;44.00;;;;;;4976550;28;20351;-80
2022/06/21 11:42:58;;;;;;;;;;;27.40;43.20;;;;;;4981739;28;19914;-80
2022/06/21 11:45:34;;;;;;;;;;;27.20;41.80;;;;;;4985262;28;19926;-79
2022/06/21 11:48:21;;;;;;;;;;;26.90;42.90;;;;;;4983690;28;19913;-77
2022/06/21 11:51:05;;;;;;;;;;;27.00;45.50;;;;;;4987402;28;19914;-80
2022/06/21 11:53:49;;;;;;;;;;;26.90;47.20;;;;;;4988755;28;19918;-77
2022/06/21 11:56:33;;;;;;;;;;;26.80;46.10;;;;;;4987293;28;19933;-79
2022/06/21 11:59:06;;;;;;;;;;;27.10;46.20;;;;;;4988739;28;19982;-78
2022/06/21 12:01:36;;;;;;;;;;;27.00;47.80;;;;;;4986155;28;19925;-77
2022/06/21 12:04:08;;;;;;;;;;;27.00;48.70;;;;;;4985457;28;20402;-81
2022/06/21 12:06:36;;;;;;;;;;;26.90;48.20;;;;;;4988763;28;19917;-79
2022/06/21 12:09:07;;;;;;;;;;;26.70;47.70;;;;;;4989309;28;19918;-79
2022/06/21 12:12:00;;;;;;;;;;;27.20;47.90;;;;;;4995440;28;19937;-79
2022/06/21 12:14:29;;;;;;;;;;;26.70;48.80;;;;;;4993494;28;20381;-80
2022/06/21 12:16:55;;;;;;;;;;;26.80;49.30;;;;;;4990545;28;20757;-80
2022/06/21 12:19:22;;;;;;;;;;;26.90;49.30;;;;;;4989326;28;20491;-79
2022/06/21 12:22:16;;;;;;;;;;;26.60;48.90;;;;;;4989649;28;19949;-79
2022/06/21 12:24:42;;;;;;;;;;;26.70;48.00;;;;;;4997363;28;19961;-79
2022/06/21 12:27:08;;;;;;;;;;;;;;;;;;4994572;28;19937;-79
2022/06/21 12:29:33;;;;;;;;;;;;;;;;;;4994683;28;20106;-79
2022/06/21 12:32:01;;;;;;;;;;;26.80;48.90;;;;;;4993127;28;19970;-79
2022/06/21 12:34:47;;;;;;;;;;;26.80;47.00;;;;;;5005212;28;19898;-77
2022/06/21 12:37:16;;;;;;;;;;;26.80;48.60;;;;;;5004096;28;20853;-78
2022/06/21 12:40:00;;;;;;;;;;;26.80;47.20;;;;;;5002653;28;19921;-79
2022/06/21 12:42:29;;;;;;;;;;;27.50;48.20;;;;;;5002704;28;19928;-79
2022/06/21 12:44:54;;;;;;;;;;;26.80;48.80;;;;;;4996267;28;19918;-81
2022/06/21 12:47:35;;;;;;;;;;;26.50;48.10;;;;;;4999339;28;19920;-81
2022/06/21 12:50:20;;;;;;;;;;;26.70;46.00;;;;;;4994542;28;19910;-80
2022/06/21 12:52:54;;;;;;;;;;;26.70;46.80;;;;;;5002046;28;19910;-80
2022/06/21 12:55:45;;;;;;;;;;;26.70;47.90;;;;;;4991862;28;19909;-81
2022/06/21 12:58:17;;;;;;;;;;;27.10;45.30;;;;;;4989093;28;19914;-79
2022/06/21 13:00:53;;;;;;;;;;;27.00;46.10;;;;;;4992350;28;19910;-80
2022/06/21 13:03:41;;;;;;;;;;;27.10;45.20;;;;;;4999046;28;19914;-78
2022/06/21 13:06:22;;;;;;;;;;;27.20;46.00;;;;;;4989393;28;19934;-81
2022/06/21 13:09:00;;;;;;;;;;;27.00;45.00;;;;;;4992749;28;19909;-79
2022/06/21 13:11:48;;;;;;;;;;;27.20;46.50;;;;;;4996695;28;19917;-81
2022/06/21 13:14:23;;;;;;;;;;;27.20;45.30;;;;;;4993873;28;19914;-80
2022/06/21 13:16:51;;;;;;;;;;;27.30;46.60;;;;;;4990245;28;19910;-80
2022/06/21 13:19:35;;;;;;;;;;;27.30;47.00;;;;;;4993979;28;19914;-80
2022/06/21 13:22:04;;;;;;;;;;;27.30;46.20;;;;;;4988929;28;20008;-79
2022/06/21 13:24:44;;;;;;;;;;;27.30;46.30;;;;;;4990125;28;19922;-78
2022/06/21 13:27:15;;;;;;;;;;;27.30;46.50;;;;;;4995399;28;19910;-79
2022/06/21 13:29:40;;;;;;;;;;;27.50;47.80;;;;;;4996056;28;19910;-79
2022/06/21 13:32:07;;;;;;;;;;;27.70;48.60;;;;;;4990041;28;19925;-77
2022/06/21 13:34:38;;;;;;;;;;;28.50;49.30;;;;;;4999532;28;19917;-80
2022/06/21 13:37:10;;;;;;;;;;;27.60;46.30;;;;;;4989626;28;19994;-79
2022/06/21 13:39:55;;;;;;;;;;;28.00;48.60;;;;;;4985879;28;19941;-81
2022/06/21 13:42:39;;;;;;;;;;;27.50;48.50;;;;;;4991339;28;19917;-80
2022/06/21 13:45:24;;;;;;;;;;;28.50;48.70;;;;;;4993231;28;19941;-80
2022/06/21 13:47:56;;;;;;;;;;;27.50;48.80;;;;;;4995592;28;19922;-80
2022/06/21 13:50:31;;;;;;;;;;;27.20;48.20;;;;;;4992237;28;19909;-80
2022/06/21 13:53:03;;;;;;;;;;;27.50;48.30;;;;;;4989569;28;19909;-79
2022/06/21 13:55:41;;;;;;;;;;;28.50;48.40;;;;;;4993489;28;19921;-80
2022/06/21 13:58:19;;;;;;;;;;;27.60;48.40;;;;;;4988580;28;20379;-80
2022/06/21 14:00:44;;;;;;;;;;;27.80;48.50;;;;;;4988037;28;20526;-80
2022/06/21 14:03:16;;;;;;;;;;;27.60;50.00;;;;;;4997763;28;19914;-80
2022/06/21 14:05:45;;;;;;;;;;;28.10;49.70;;;;;;4998971;28;20048;-81
2022/06/21 14:08:20;;;;;;;;;;;27.40;49.20;;;;;;4992880;28;19910;-79
2022/06/21 14:10:45;;;;;;;;;;;27.50;49.40;;;;;;4987061;28;19909;-81
2022/06/21 14:13:11;;;;;;;;;;;27.20;50.30;;;;;;4992224;28;19921;-80
2022/06/21 14:15:40;;;;;;;;;;;27.70;49.60;;;;;;4989940;28;19932;-82
2022/06/21 14:18:14;;;;;;;;;;;27.80;48.90;;;;;;4994864;28;19917;-80
2022/06/21 14:20:57;;;;;;;;;;;28.40;49.10;;;;;;4982340;28;19957;-79
2022/06/21 14:23:33;;;;;;;;;;;28.40;48.30;;;;;;4991178;28;19951;-80
2022/06/21 14:26:01;;;;;;;;;;;27.90;48.30;;;;;;4989277;28;19921;-81
2022/06/21 14:28:31;;;;;;;;;;;27.70;49.20;;;;;;4984634;28;20416;-79
2022/06/21 14:31:11;;;;;;;;;;;28.00;47.60;;;;;;4993448;28;20001;-79
2022/06/21 14:33:36;;;;;;;;;;;27.70;47.90;;;;;;4991366;28;19909;-78
2022/06/21 14:36:15;;;;;;;;;;;28.20;50.30;;;;;;4980157;28;19918;-78
2022/06/21 14:38:46;;;;;;;;;;;27.90;47.70;;;;;;4992483;28;19921;-78
2022/06/21 14:41:14;;;;;;;;;;;27.60;48.90;;;;;;4990387;28;19909;-79
2022/06/21 14:43:47;;;;;;;;;;;28.60;51.30;;;;;;4983908;28;20784;-80
2022/06/21 14:46:15;;;;;;;;;;;28.70;49.30;;;;;;4977944;28;20380;-79
2022/06/21 14:48:43;;;;;;;;;;;28.00;50.60;;;;;;4973527;28;19975;-79
2022/06/21 14:51:15;;;;;;;;;;;27.80;50.50;;;;;;4978563;28;19914;-80
2022/06/21 14:53:41;;;;;;;;;;;28.80;50.30;;;;;;4979484;28;19975;-78
2022/06/21 14:56:32;;;;;;;;;;;27.60;48.80;;;;;;4990370;28;20008;-78
2022/06/21 14:58:58;;;;;;;;;;;27.60;48.50;;;;;;4982499;28;19949;-80
2022/06/21 15:01:32;;;;;;;;;;;28.60;48.50;;;;;;4987879;28;19918;-79
2022/06/21 15:04:26;;;;;;;;;;;27.90;49.40;;;;;;4986053;28;19933;-80
2022/06/21 15:07:03;;;;;;;;;;;27.50;49.30;;;;;;4975194;28;19952;-79